Flight Track Log - Related Links

Times and Time Zones

All times are in EDT time to prevent confusion due to time zone crossing. See the N567MG flight status page for this flight to view local times or setup timezone preferences in your user account.

Time Position Orientation Groundspeed Altitude Reporting Facility
EDT Latitude Longitude Course Direction KTS MPH feet Rate Location/Type
Mon 11:02:32 AM 33.0228 -82.5028 174° South 160 184 6,500  Level Atlanta Center
Mon 11:03:32 AM 32.9808 -82.4961 172° South 160 184 6,500  Level Atlanta Center
Mon 11:04:32 AM 32.9369 -82.4894 173° South 160 184 6,500  Level Atlanta Center
Mon 11:05:32 AM 32.8931 -82.4828 173° South 160 184 6,500  Level Atlanta Center
Mon 11:06:32 AM 32.8511 -82.4736 170° South 160 184 6,500  Level Atlanta Center
Mon 11:07:00 AM 34.3924 -82.6969 174° South  Level Estimated
Mon 11:07:32 AM 32.8094 -82.4669 172° South 160 184 6,500  Level Atlanta Center
Mon 11:08:32 AM 32.7656 -82.4653 178° South 160 184 6,500  Level Atlanta Center
Mon 11:09:32 AM 32.7236 -82.4561 170° South 160 184 6,500  Level Atlanta Center
Mon 11:11:19 AM 32.6481 -82.4286 163° South 157 181 6,500  Level Jacksonville Center
Mon 11:12:19 AM 32.6061 -82.4092 159° South 157 181 6,500  Level Jacksonville Center
Mon 11:13:19 AM 32.5683 -82.3897 157° South 157 181 6,500  Level Jacksonville Center
Mon 11:14:19 AM 32.5267 -82.3775 166° South 152 175 6,500  Level Jacksonville Center
Mon 11:15:19 AM 32.4847 -82.3656 166° South 152 175 6,500  Level Jacksonville Center
Mon 11:16:19 AM 32.4431 -82.3511 164° South 152 175 6,500  Level Jacksonville Center
Mon 11:17:19 AM 32.4033 -82.3414 168° South 159 183 6,500  Level Jacksonville Center
Mon 11:18:19 AM 32.3636 -82.3319 169° South 159 183 6,500  Level Jacksonville Center
Mon 11:19:19 AM 32.3197 -82.3222 169° South 159 183 6,500  Level Jacksonville Center
Mon 11:20:19 AM 32.2739 -82.3175 175° South 159 183 6,500  Level Jacksonville Center
Mon 11:21:19 AM 32.2319 -82.3156 178° South 156 180 6,500  Level Jacksonville Center
Mon 11:22:19 AM 32.1903 -82.3033 166° South 162 186 6,500  Level Jacksonville Center
Mon 11:23:19 AM 32.1525 -82.2989 174° South 162 186 6,500  Level Jacksonville Center
Mon 11:24:19 AM 32.1067 -82.2967 178° South 156 180 6,500  Level Jacksonville Center
Mon 11:25:19 AM 32.0650 -82.2919 175° South 156 180 6,500  Level Jacksonville Center
Mon 11:26:19 AM 32.0231 -82.2872 175° South 156 180 6,500  Level Jacksonville Center
Mon 11:27:19 AM 31.9833 -82.2875 180° South 161 185 6,500  Level Jacksonville Center
Mon 11:28:19 AM 31.9417 -82.2856 178° South 161 185 6,500  Level Jacksonville Center
Mon 11:29:19 AM 31.8936 -82.2808 175° South 161 185 6,500  Level Jacksonville Center
Mon 11:30:19 AM 31.8497 -82.2761 175° South 161 185 6,500  Level Jacksonville Center
Mon 11:31:19 AM 31.8081 -82.2742 178° South 156 180 6,500  Level Jacksonville Center
Mon 11:32:19 AM 31.7683 -82.2719 177° South 156 180 6,500  Level Jacksonville Center
Mon 11:33:19 AM 31.7244 -82.2697 178° South 156 180 6,500  Level Jacksonville Center
Mon 11:34:19 AM 31.6786 -82.2700 180° South 156 180 6,500  Level Jacksonville Center
Mon 11:35:19 AM 31.6347 -82.2703 180° South 156 180 6,500  Level Jacksonville Center
Mon 11:36:19 AM 31.5972 -82.2681 177° South 161 185 6,500  Level Jacksonville Center
Mon 11:37:19 AM 31.5533 -82.2708 183° South 156 180 6,500  Level Jacksonville Center
Mon 11:38:19 AM 31.5072 -82.2689 178° South 161 185 6,500  Level Jacksonville Center
Mon 11:39:19 AM 31.4656 -82.2692 180° South 156 180 6,500  Level Jacksonville Center
Mon 11:40:19 AM 31.4239 -82.2742 186° South 157 181 6,500  Level Jacksonville Center
Mon 11:41:19 AM 31.3842 -82.2694 174° South 157 181 6,500  Level Jacksonville Center
Mon 11:42:19 AM 31.3383 -82.2722 183° South 164 189 6,500  Level Jacksonville Center
Mon 11:43:19 AM 31.2964 -82.2750 183° South 159 183 6,500  Level Jacksonville Center
Mon 11:44:19 AM 31.2525 -82.2728 178° South 159 183 6,500  Level Jacksonville Center
Mon 11:45:19 AM 31.2089 -82.2731 180° South 159 183 6,500  Level Jacksonville Center
Mon 11:46:31 AM 31.1567 -82.2711 178° South 153 176 6,500  Level Jacksonville Center
Mon 11:47:14 AM 31.1231 -82.2689 177° South 155 178 6,500  Level Jacksonville Center
Mon 11:47:19 AM 31.1231 -82.2689 177° South 159 183 6,500  Level Jacksonville Center
Mon 11:48:14 AM 31.0833 -82.2472 155° Southeast 160 184 6,500  Level Jacksonville Center
Mon 11:49:16 AM 31.0436 -82.2258 155° Southeast 157 181 6,500  Level Jacksonville Center
Mon 11:50:17 AM 31.0017 -82.2139 166° South 156 180 6,500  Level Jacksonville Center
Mon 11:51:20 AM 30.9600 -82.1972 161° South 159 183 6,500  Level Jacksonville Center
Mon 11:52:19 AM 30.9181 -82.1903 172° South 159 183 6,500  Level Jacksonville Center
Mon 11:53:19 AM 30.8764 -82.1931 183° South 159 183 6,500  Level Jacksonville Center
Mon 11:54:19 AM 30.8306 -82.1958 183° South 159 183 6,500  Level Jacksonville Center
Mon 11:55:19 AM 30.7886 -82.1986 183° South 159 183 6,500  Level Jacksonville Center
Mon 11:56:19 AM 30.7450 -82.2036 186° South 159 183 6,500  Level Jacksonville Center
Mon 11:57:41 AM 30.6822 -82.2067 182° South 156 180 6,500  Level Jacksonville Center
Mon 11:58:42 AM 30.6406 -82.2092 183° South 156 180 6,500  Level Jacksonville Center
Mon 11:59:44 AM 30.5989 -82.2217 194° South 154 177 6,500  Level Jacksonville Center
Mon 12:00:26 PM 30.5656 -82.2317 194° South 154 177 6,500  Level Jacksonville Center
Mon 12:01:27 PM 30.5236 -82.2392 189° South 155 178 6,500  Level Jacksonville Center
Mon 12:02:34 PM 30.4778 -82.2417 183° South 154 177 6,500  Level Jacksonville Center
Mon 12:03:35 PM 30.4319 -82.2469 186° South 154 177 6,500  Level Jacksonville Center
Mon 12:04:42 PM 30.3861 -82.2544 188° South 158 182 6,500  Level Jacksonville Center
Mon 12:05:37 PM 30.3464 -82.2594 186° South 157 181 6,500  Level Jacksonville Center
Mon 12:06:32 PM 30.3047 -82.2669 189° South 157 181 6,500  Level Jacksonville Center
Mon 12:07:39 PM 30.2544 -82.2697 183° South 157 181 6,500  Level Jacksonville Center
Mon 12:08:34 PM 30.2169 -82.2700 180° South 158 182 6,500  Level Jacksonville Center
Mon 12:09:34 PM 30.1689 -82.2750 185° South 158 182 6,500 45 Level Jacksonville Center
Mon 12:10:48 PM 30.1147 -82.2731 178° South 160 184 6,600 44 Climbing Jacksonville Center
Mon 12:11:49 PM 30.0708 -82.2733 180° South 160 184 6,600  Level Jacksonville Center
Mon 12:12:44 PM 30.0292 -82.2783 186° South 160 184 6,600 -52 Level Jacksonville Center
Mon 12:13:44 PM 29.9872 -82.2786 180° South 158 182 6,500 -52 Descending Jacksonville Center
Mon 12:14:39 PM 29.9456 -82.2789 180° South 160 184 6,500  Level Jacksonville Center
Mon 12:15:46 PM 29.8975 -82.2744 175° South 158 182 6,500  Level Jacksonville Center
Mon 12:16:47 PM 29.8517 -82.2700 175° South 158 182 6,500  Level Jacksonville Center
Mon 12:17:54 PM 29.8036 -82.2606 170° South 159 183 6,500  Level Jacksonville Center
Mon 12:18:49 PM 29.7639 -82.2561 174° South 157 181 6,500  Level Jacksonville Center
Mon 12:19:50 PM 29.7200 -82.2517 175° South 156 180 6,500  Level Jacksonville Center
Mon 12:20:39 PM 29.6825 -82.2447 171° South 156 180 6,500  Level Jacksonville Center
Mon 12:21:46 PM 29.6364 -82.2378 173° South 157 181 6,500  Level Jacksonville Center
Mon 12:22:41 PM 29.5967 -82.2333 174° South 157 181 6,500 155 Level Jacksonville Center
Mon 12:23:42 PM 29.5569 -82.2289 174° South 151 174 6,800 422 Climbing Jacksonville Center
Mon 12:24:49 PM 29.5131 -82.2244 175° South 132 152 7,400 516 Climbing Jacksonville Center
Mon 12:25:50 PM 29.4778 -82.2150 167° South 129 148 7,900 541 Climbing Jacksonville Center
Mon 12:26:51 PM 29.4422 -82.2106 174° South 126 145 8,500 295 Climbing Jacksonville Center
Mon 12:27:52 PM 29.4025 -82.2061 174° South 137 158 8,500  Level Jacksonville Center
Mon 12:28:47 PM 29.3692 -82.2158 194° South 141 162 8,500  Level Jacksonville Center
Mon 12:29:41 PM 29.3378 -82.2397 214° Southwest 142 163 8,500  Level Jacksonville Center
Mon 12:30:42 PM 29.3025 -82.2617 208° Southwest 146 168 8,500 155 Level Jacksonville Center
Mon 12:31:37 PM 29.2733 -82.2878 218° Southwest 146 168 8,800 362 Climbing Jacksonville Center
Mon 12:32:38 PM 29.2422 -82.3094 211° Southwest 131 151 9,200 328 Climbing Jacksonville Center
Mon 12:33:45 PM 29.2089 -82.3358 215° Southwest 125 144 9,500 141 Climbing Jacksonville Center
Mon 12:34:46 PM 29.1736 -82.3575 208° Southwest 142 163 9,500  Level Jacksonville Center
Mon 12:35:40 PM 29.1403 -82.3767 207° Southwest 150 173 9,500  Level Jacksonville Center
Mon 12:36:47 PM 29.1006 -82.4031 210° Southwest 150 173 9,500  Level Jacksonville Center
Mon 12:37:54 PM 29.0569 -82.4269 206° Southwest 153 176 9,500  Level Jacksonville Center
Mon 12:38:55 PM 29.0217 -82.4533 213° Southwest 150 173 9,500  Level Jacksonville Center
Mon 12:39:56 PM 28.9839 -82.4678 198° South 149 171 9,500  Level Jacksonville Center
Mon 12:40:57 PM 28.9422 -82.4797 194° South 151 174 9,500  Level Jacksonville Center
Mon 12:41:58 PM 28.9028 -82.4917 195° South 150 173 9,500 98 Level Jacksonville Center
Mon 12:42:59 PM 28.8589 -82.4967 186° South 147 169 9,700 344 Climbing Jacksonville Center
Mon 12:44:00 PM 28.8214 -82.4897 171° South 133 153 10,200 393 Climbing Jacksonville Center
Mon 12:45:01 PM 28.7858 -82.4828 170° South 128 147 10,500 148 Climbing Jacksonville Center
Mon 12:46:02 PM 28.7439 -82.4783 175° South 147 169 10,500  Level Jacksonville Center
Mon 12:48:01 PM 28.6667 -82.4833 183° South 161 185 10,500  Level Tampa TRACON
Mon 12:48:55 PM 28.6333 -82.5000 204° Southwest 157 181 10,500  Level Tampa TRACON
Mon 12:49:55 PM 28.5833 -82.5167 196° South 154 177 10,500 40 Level Tampa TRACON
Mon 12:51:00 PM 28.5336 -82.4960 160° South  Level FlightAware Approximate
Mon 12:58:00 PM 28.2121 -82.3627 160° South  Level FlightAware Approximate
Mon 12:59:00 PM 28.1661 -82.3438 160° South  Level FlightAware Approximate
Mon 01:00:00 PM 28.1202 -82.3248 160° South  Level FlightAware Approximate
Mon 01:01:00 PM 28.0743 -82.3059 160° South  Level FlightAware Approximate
Mon 01:02:00 PM 28.0283 -82.2869 160° South  Level FlightAware Approximate
Mon 01:03:00 PM 27.9824 -82.2680 160° South  Level FlightAware Approximate
Mon 01:04:00 PM 27.9364 -82.2491 160° South  Level FlightAware Approximate
Mon 01:05:00 PM 27.8905 -82.2303 160° South  Level FlightAware Approximate
Mon 01:06:00 PM 27.8445 -82.2114 160° South  Level FlightAware Approximate
Mon 01:07:00 PM 27.7958 -82.1936 165° South  Level FlightAware Approximate
Mon 01:08:00 PM 27.7486 -82.1790 165° South  Level FlightAware Approximate
Mon 01:09:00 PM 27.7015 -82.1645 165° South  Level FlightAware Approximate
Mon 01:10:00 PM 27.6543 -82.1500 165° South  Level FlightAware Approximate
Mon 01:11:00 PM 27.6071 -82.1355 165° South  Level FlightAware Approximate
Mon 01:12:00 PM 27.5599 -82.1212 165° South  Level FlightAware Approximate
Mon 01:13:00 PM 27.5127 -82.1070 165° South  Level FlightAware Approximate
Mon 01:13:42 PM 27.6275 -82.3714 165° South 153 176 11,500  Level Miami Center
Mon 01:14:00 PM 27.4654 -82.0928 165° South  Level FlightAware Approximate
Mon 01:14:42 PM 27.5881 -82.3622 168° South 157 181 11,500  Level Miami Center
Mon 01:15:00 PM 27.4182 -82.0786 165° South  Level FlightAware Approximate
Mon 01:15:42 PM 27.5428 -82.3486 165° South 157 181 11,500  Level Miami Center
Mon 01:16:00 PM 27.3710 -82.0645 165° South  Level FlightAware Approximate
Mon 01:16:42 PM 27.5014 -82.3372 166° South 157 181 11,500  Level Miami Center
Mon 01:17:00 PM 27.3237 -82.0503 165° South  Level FlightAware Approximate
Mon 01:17:42 PM 27.4581 -82.3258 167° South 157 181 11,500  Level Miami Center
Mon 01:18:00 PM 27.2765 -82.0361 165° South  Level FlightAware Approximate
Mon 01:18:42 PM 27.4144 -82.3189 172° South 157 181 11,500  Level Miami Center
Mon 01:19:42 PM 27.3711 -82.3075 167° South 162 186 11,500  Level Miami Center
Mon 01:20:42 PM 27.3297 -82.2964 167° South 162 186 11,500  Level Miami Center
Mon 01:21:42 PM 27.2864 -82.2872 169° South 162 186 11,500  Level Miami Center
Mon 01:22:42 PM 27.2447 -82.2783 169° South 162 186 11,500 -250 Level Miami Center
Mon 01:23:42 PM 27.1972 -82.2692 170° South 162 186 11,000 -550 Descending Miami Center
Mon 01:24:42 PM 27.1475 -82.2597 170° South 172 198 10,400 -600 Descending Miami Center
Mon 01:25:42 PM 27.1000 -82.2458 165° South 182 209 9,800 -650 Descending Miami Center
Mon 01:26:42 PM 27.0483 -82.2342 169° South 182 209 9,100 -700 Descending Miami Center
Mon 01:27:42 PM 26.9964 -82.2247 171° South 187 215 8,400 -650 Descending Miami Center
Mon 01:28:42 PM 26.9469 -82.2108 166° South 187 215 7,800 -650 Descending Miami Center
Mon 01:29:42 PM 26.8972 -82.2017 171° South 187 215 7,100 -700 Descending Miami Center
Mon 01:30:42 PM 26.8494 -82.1925 170° South 182 209 6,400 -650 Descending Miami Center
Mon 01:31:42 PM 26.7997 -82.1831 170° South 182 209 5,800 -450 Descending Miami Center
Mon 01:32:42 PM 26.7519 -82.1764 173° South 182 209 5,500 -150 Descending Miami Center
Mon 01:33:42 PM 26.7042 -82.1694 173° South 175 201 5,500  Level Miami Center
Mon 01:35:00 PM 26.6478 -82.1290 156° South  Level Estimated
Mon 01:42:00 PM 26.3458 -81.9088 147° Southeast  Level FlightAware Approximate
Mon 01:43:00 PM 26.3027 -81.8774 147° Southeast  Level FlightAware Approximate
Mon 01:44:00 PM 26.2595 -81.8460 147° Southeast  Level FlightAware Approximate
Mon 01:45:00 PM 26.2163 -81.8147 147° Southeast  Level FlightAware Approximate
Mon 01:46:00 PM 26.1731 -81.7834 147° Southeast  Level FlightAware Approximate
Mon 01:47:00 PM 26.1500 -81.7667 156° South  Level FlightAware Approximate
Mon 01:48:00 PM 26.1524 -81.7756 156° South  Level Estimated
Mon 01:49:00 PM 26.1524 -81.7756 156° South  Level Estimated

Login

Don't have an account? Register now (free) for customized features, flight alerts, and more!